^^
Station Historical Data
 
Daily Summary for April 26, 2017 Units:  English    Metric   Both
« Previous Day
Next Day »
Daily Weekly Monthly Yearly Custom
  Current: High: Low: Average:
Temperature: 47.0 °F 52.9 °F 40.5 °F 48.2 °F
Dew Point: 38.8 °F 46.9 °F 36.7 °F 42.9 °F
Humidity: 73% 98% 66% 83%
Wind Speed: 10.4mph 29.9mph 0.0mph 10.2mph
Wind Gust: 10.4mph 33.0mph - -
WindWest - - West
Pressure: 29.99 in 29.99 in 29.74 in -
Precipitation: 0.00 in      
Historical Graphs
 
 
Tabular Data for April 26, 2017
Time Temperature Dew Point Pressure Wind Wind Speed Wind Gust Humidity Rainfall Rate (Hourly) solar Conditions
00:00 44.5 °F 42.6 °F 29.75 in Calm     93% 0.00 in 0.0 W/m2 CLR
00:04 44.5 °F 42.6 °F 29.75 in Calm     93% 0.00 in 0.0 W/m2 CLR
00:09 43.2 °F 41.6 °F 29.75 in Calm     94% 0.00 in 0.0 W/m2 CLR
00:14 42.8 °F 41.2 °F 29.74 in Calm     94% 0.00 in 0.0 W/m2 CLR
00:19 42.6 °F 41.0 °F 29.74 in Calm     94% 0.00 in 0.0 W/m2 CLR
00:24 42.5 °F 40.9 °F 29.74 in Calm     94% 0.00 in 0.0 W/m2 CLR
00:29 42.3 °F 40.9 °F 29.75 in Calm     95% 0.00 in 0.0 W/m2 CLR
00:34 41.7 °F 40.1 °F 29.75 in Calm     94% 0.00 in 0.0 W/m2 CLR
00:39 41.4 °F 40.1 °F 29.75 in Calm     95% 0.00 in 0.0 W/m2 CLR
00:44 41.5 °F 40.1 °F 29.75 in Calm     95% 0.00 in 0.0 W/m2 CLR
00:49 41.2 °F 39.9 °F 29.76 in Calm     95% 0.00 in 0.0 W/m2 CLR
00:54 40.9 °F 39.6 °F 29.75 in Calm     95% 0.00 in 0.0 W/m2 CLR
00:59 40.6 °F 39.3 °F 29.76 in Calm     95% 0.00 in 0.0 W/m2 CLR
01:04 40.6 °F 39.3 °F 29.76 in Calm     95% 0.00 in 0.0 W/m2 CLR
01:09 40.5 °F 39.4 °F 29.76 in Calm     96% 0.00 in 0.0 W/m2 CLR
01:14 40.7 °F 39.6 °F 29.75 in Calm     96% 0.00 in 0.0 W/m2 CLR
01:19 41.0 °F 39.9 °F 29.76 in Calm     96% 0.00 in 0.0 W/m2 CLR
01:24 41.0 °F 39.9 °F 29.76 in Calm     96% 0.00 in 0.0 W/m2 CLR
01:30 41.0 °F 40.0 °F 29.76 in Calm     96% 0.00 in 0.0 W/m2 CLR
01:34 41.1 °F 40.0 °F 29.76 in Calm     96% 0.00 in 0.0 W/m2 CLR
01:39 41.0 °F 39.9 °F 29.76 in Calm     96% 0.00 in 0.0 W/m2 CLR
01:44 41.1 °F 40.0 °F 29.77 in Calm     96% 0.00 in 0.0 W/m2 CLR
01:49 41.2 °F 40.1 °F 29.77 in Calm     96% 0.00 in 0.0 W/m2 CLR
01:54 41.3 °F 40.2 °F 29.77 in Calm     96% 0.00 in 0.0 W/m2 CLR
01:59 41.3 °F 40.5 °F 29.77 in Calm     97% 0.00 in 0.0 W/m2 CLR
02:04 41.5 °F 40.7 °F 29.77 in Calm     97% 0.00 in 0.0 W/m2 CLR
02:09 41.7 °F 40.9 °F 29.76 in Calm     97% 0.00 in 0.0 W/m2 CLR
02:14 42.0 °F 41.2 °F 29.76 in Calm   2.0 mph 97% 0.00 in 0.0 W/m2 CLR
02:19 42.5 °F 42.0 °F 29.76 in Calm   2.0 mph 98% 0.00 in 0.0 W/m2 CLR
02:24 42.9 °F 42.4 °F 29.76 in Calm   1.0 mph 98% 0.00 in 0.0 W/m2 CLR
02:29 42.9 °F 41.8 °F 29.76 in Calm   1.0 mph 96% 0.00 in 0.0 W/m2 CLR
02:34 43.0 °F 42.2 °F 29.76 in Calm   1.0 mph 97% 0.00 in 0.0 W/m2 CLR
02:39 43.1 °F 42.0 °F 29.77 in Calm     96% 0.00 in 0.0 W/m2 CLR
02:44 43.2 °F 42.1 °F 29.77 in Calm     96% 0.00 in 0.0 W/m2 CLR
02:49 43.4 °F 42.3 °F 29.77 in Calm     96% 0.00 in 0.0 W/m2 CLR
02:54 43.5 °F 42.4 °F 29.77 in Calm     96% 0.00 in 0.0 W/m2 CLR
02:59 43.6 °F 42.5 °F 29.78 in Calm     96% 0.00 in 0.0 W/m2 CLR
03:04 43.7 °F 42.6 °F 29.78 in Calm     96% 0.00 in 0.0 W/m2 CLR
03:09 43.9 °F 42.8 °F 29.78 in Calm     96% 0.00 in 0.0 W/m2 CLR
03:14 44.1 °F 43.0 °F 29.78 in Calm     96% 0.00 in 0.0 W/m2 CLR
03:19 44.3 °F 43.2 °F 29.77 in Calm     96% 0.00 in 0.0 W/m2 CLR
03:24 44.5 °F 43.4 °F 29.77 in Calm     96% 0.00 in 0.0 W/m2 CLR
03:30 44.7 °F 43.7 °F 29.76 in Calm     96% 0.00 in 0.0 W/m2 CLR
03:34 44.9 °F 43.8 °F 29.76 in Calm   1.0 mph 96% 0.00 in 0.0 W/m2 CLR
03:39 44.9 °F 43.9 °F 29.77 in Calm   1.0 mph 96% 0.00 in 0.0 W/m2 CLR
03:45 45.1 °F 44.0 °F 29.77 in Calm     96% 0.00 in 0.0 W/m2 CLR
03:49 45.2 °F 44.1 °F 29.77 in Calm     96% 0.00 in 0.0 W/m2 CLR
03:54 45.3 °F 44.2 °F 29.77 in Calm   1.0 mph 96% 0.00 in 0.0 W/m2 CLR
03:59 45.4 °F 44.3 °F 29.78 in Calm   1.0 mph 96% 0.00 in 0.0 W/m2 CLR
04:04 45.5 °F 44.1 °F 29.78 in Calm     95% 0.00 in 0.0 W/m2 CLR
04:09 45.5 °F 44.2 °F 29.78 in Calm     95% 0.00 in 0.0 W/m2 CLR
04:10 45.6 °F 44.3 °F 29.78 in Calm     95% 0.00 in 0.0 W/m2 CLR
04:15 45.7 °F 44.4 °F 29.78 in Calm   0.5 mph 95% 0.00 in 0.0 W/m2 CLR
04:21 45.8 °F 44.4 °F 29.78 in Calm     95% 0.00 in 0.0 W/m2 CLR
04:26 45.9 °F 44.5 °F 29.79 in Calm     95% 0.00 in 0.0 W/m2 CLR
04:31 46.0 °F 44.6 °F 29.78 in SSE 1.2 mph 1.2 mph 95% 0.00 in 0.0 W/m2 CLR
04:36 46.0 °F 44.6 °F 29.78 in Calm     95% 0.00 in 0.0 W/m2 CLR
04:41 46.0 °F 44.6 °F 29.78 in SE 1.2 mph 1.2 mph 95% 0.00 in 0.0 W/m2 CLR
04:46 46.1 °F 44.7 °F 29.78 in SE 3.5 mph 3.5 mph 95% 0.00 in 0.0 W/m2 CLR
04:51 46.1 °F 44.7 °F 29.77 in SE 4.6 mph 4.6 mph 95% 0.00 in 0.0 W/m2 CLR
04:56 46.2 °F 44.8 °F 29.77 in ESE 3.5 mph 3.5 mph 95% 0.00 in 0.0 W/m2 CLR
05:01 46.2 °F 44.8 °F 29.77 in SSE 1.2 mph 1.2 mph 95% 0.00 in 0.0 W/m2 CLR
05:06 46.2 °F 44.8 °F 29.77 in NE 3.5 mph 3.5 mph 95% 0.00 in 0.0 W/m2 CLR
05:11 45.8 °F 44.4 °F 29.77 in NE 2.3 mph 2.3 mph 95% 0.00 in 0.0 W/m2 CLR
05:16 45.8 °F 44.4 °F 29.77 in Calm     95% 0.00 in 0.0 W/m2 CLR
05:21 45.8 °F 44.4 °F 29.77 in Calm     95% 0.00 in 0.0 W/m2 CLR
05:26 45.9 °F 44.5 °F 29.78 in Calm     95% 0.00 in 0.0 W/m2 CLR
05:31 46.0 °F 44.6 °F 29.77 in Calm     95% 0.00 in 0.0 W/m2 CLR
05:37 46.1 °F 45.0 °F 29.78 in Calm     96% 0.00 in 0.0 W/m2 CLR
05:42 46.2 °F 45.1 °F 29.78 in Calm     96% 0.00 in 0.0 W/m2 CLR
05:47 46.2 °F 44.8 °F 29.77 in Calm     95% 0.00 in 0.0 W/m2 CLR
05:52 46.2 °F 45.1 °F 29.78 in Calm     96% 0.00 in 0.0 W/m2 CLR
05:57 46.3 °F 45.2 °F 29.77 in Calm     96% 0.00 in 0.0 W/m2 CLR
06:02 46.3 °F 44.9 °F 29.77 in ESE 1.2 mph 1.2 mph 95% 0.00 in 0.0 W/m2 CLR
06:07 46.3 °F 44.9 °F 29.77 in Calm     95% 0.00 in 0.0 W/m2 CLR
06:12 46.3 °F 44.9 °F 29.78 in NNW 1.2 mph 1.2 mph 95% 0.00 in 0.0 W/m2 CLR
06:17 46.3 °F 44.9 °F 29.78 in Calm     95% 0.00 in 0.0 W/m2 CLR
06:22 46.4 °F 45.0 °F 29.78 in Calm     95% 0.00 in 0.0 W/m2 CLR
06:27 46.4 °F 45.0 °F 29.78 in Calm     95% 0.00 in 0.0 W/m2 CLR
06:32 46.5 °F 45.1 °F 29.78 in Calm     95% 0.00 in 0.0 W/m2 CLR
06:37 46.6 °F 45.2 °F 29.78 in Calm     95% 0.00 in 0.0 W/m2 CLR
06:42 46.6 °F 45.2 °F 29.78 in Calm     95% 0.00 in 0.0 W/m2 CLR
06:47 46.6 °F 45.2 °F 29.79 in WNW 2.0 mph 2.0 mph 95% 0.00 in 0.0 W/m2 CLR
06:53 46.6 °F 45.2 °F 29.79 in West 1.2 mph 1.2 mph 95% 0.00 in 0.0 W/m2 CLR
06:58 46.5 °F 45.1 °F 29.79 in West 1.2 mph 1.2 mph 95% 0.00 in 0.0 W/m2 CLR
07:03 46.5 °F 45.1 °F 29.79 in West 1.2 mph 1.2 mph 95% 0.00 in 0.0 W/m2 CLR
07:08 46.6 °F 45.2 °F 29.79 in WSW 1.2 mph 1.2 mph 95% 0.00 in 0.0 W/m2 CLR
07:13 46.5 °F 45.1 °F 29.79 in Calm     95% 0.00 in 0.0 W/m2 CLR
07:19 46.5 °F 45.1 °F 29.79 in Calm     95% 0.00 in 0.0 W/m2 CLR
07:24 46.5 °F 45.1 °F 29.79 in Calm     95% 0.00 in 0.0 W/m2 CLR
07:25 46.5 °F 45.1 °F 29.79 in Calm     95% 0.00 in 0.0 W/m2 CLR
07:30 46.6 °F 45.2 °F 29.79 in Calm     95% 0.00 in 0.0 W/m2 CLR
07:35 46.7 °F 45.3 °F 29.79 in West 2.3 mph 2.3 mph 95% 0.00 in 0.0 W/m2 CLR
07:40 46.9 °F 45.5 °F 29.79 in West 1.2 mph 1.2 mph 95% 0.00 in 0.0 W/m2 CLR
07:45 47.1 °F 45.7 °F 29.79 in West 1.2 mph 1.2 mph 95% 0.00 in 0.0 W/m2 CLR
07:50 47.3 °F 45.7 °F 29.79 in SW 1.2 mph 1.2 mph 94% 0.00 in 0.0 W/m2 CLR
07:55 47.6 °F 46.0 °F 29.80 in West 2.3 mph 2.3 mph 94% 0.00 in 0.0 W/m2 CLR
08:01 47.8 °F 46.2 °F 29.80 in NE 4.0 mph 4.0 mph 94% 0.00 in 0.0 W/m2 OVC
08:06 47.9 °F 46.0 °F 29.80 in WNW 5.8 mph 5.8 mph 93% 0.00 in 0.0 W/m2 OVC
08:11 48.0 °F 46.1 °F 29.80 in West 9.2 mph 9.2 mph 93% 0.00 in 0.0 W/m2 OVC
08:16 48.1 °F 46.2 °F 29.80 in West 2.3 mph 2.3 mph 93% 0.00 in 0.0 W/m2 OVC
08:21 48.2 °F 46.0 °F 29.80 in West 9.2 mph 9.2 mph 92% 0.00 in 0.0 W/m2 OVC
08:26 48.3 °F 45.8 °F 29.80 in WNW 8.1 mph 8.1 mph 91% 0.00 in 0.0 W/m2 OVC
08:31 48.4 °F 45.9 °F 29.80 in WNW 5.8 mph 5.8 mph 91% 0.00 in 0.0 W/m2 OVC
08:36 48.5 °F 46.0 °F 29.80 in West 12.0 mph 12.0 mph 91% 0.00 in 0.0 W/m2 OVC
08:41 48.5 °F 45.7 °F 29.80 in WNW 9.2 mph 9.2 mph 90% 0.00 in 0.0 W/m2 OVC
08:46 48.8 °F 46.0 °F 29.80 in West 3.5 mph 3.5 mph 90% 0.00 in 0.0 W/m2 OVC
08:51 48.8 °F 46.0 °F 29.80 in WNW 9.2 mph 9.2 mph 90% 0.00 in 0.0 W/m2 OVC
08:56 48.8 °F 45.7 °F 29.80 in West 11.5 mph 11.5 mph 89% 0.00 in 0.0 W/m2 OVC
08:57 48.8 °F 45.7 °F 29.81 in West 12.7 mph 12.7 mph 89% 0.00 in 0.0 W/m2 OVC
09:02 48.8 °F 45.7 °F 29.81 in WNW 8.1 mph 8.1 mph 89% 0.00 in 0.0 W/m2 OVC
09:07 48.9 °F 45.8 °F 29.81 in WNW 8.1 mph 8.1 mph 89% 0.00 in 0.0 W/m2 OVC
09:12 49.2 °F 46.4 °F 29.81 in West 10.4 mph 10.4 mph 90% 0.00 in 0.0 W/m2 OVC
09:17 49.4 °F 46.3 °F 29.81 in West 12.7 mph 12.7 mph 89% 0.00 in 0.0 W/m2 OVC
09:22 49.6 °F 46.2 °F 29.81 in West 12.0 mph 12.0 mph 88% 0.00 in 0.0 W/m2 OVC
09:23 49.7 °F 46.3 °F 29.81 in West 12.0 mph 12.0 mph 88% 0.00 in 0.0 W/m2 OVC
09:28 49.7 °F 46.0 °F 29.81 in WNW 15.0 mph 15.0 mph 87% 0.00 in 0.0 W/m2 OVC
09:33 49.6 °F 45.6 °F 29.81 in West 15.0 mph 15.0 mph 86% 0.00 in 0.0 W/m2 OVC
09:38 49.6 °F 45.6 °F 29.81 in NW 17.3 mph 17.3 mph 86% 0.00 in 0.0 W/m2 OVC
09:43 49.6 °F 45.6 °F 29.82 in WNW 12.7 mph 12.7 mph 86% 0.00 in 0.0 W/m2 OVC
09:48 49.7 °F 45.7 °F 29.82 in West 13.8 mph 13.8 mph 86% 0.00 in 0.0 W/m2 OVC
09:53 50.1 °F 46.1 °F 29.82 in West 12.0 mph 12.0 mph 86% 0.00 in 0.0 W/m2 OVC
09:58 50.0 °F 45.7 °F 29.82 in WNW 11.5 mph 11.5 mph 85% 0.00 in 0.0 W/m2 OVC
10:03 50.3 °F 45.6 °F 29.82 in West 13.8 mph 13.8 mph 84% 0.00 in 0.0 W/m2 OVC
10:09 50.9 °F 46.9 °F 29.82 in West 17.3 mph 17.3 mph 86% 0.00 in 0.0 W/m2 OVC
10:14 51.0 °F 46.3 °F 29.82 in WNW 13.8 mph 13.8 mph 84% 0.00 in 0.0 W/m2 OVC
10:19 50.7 °F 45.4 °F 29.82 in NW 17.3 mph 17.3 mph 82% 0.00 in 0.0 W/m2 OVC
10:24 50.5 °F 45.5 °F 29.82 in WNW 11.5 mph 11.5 mph 83% 0.00 in 0.0 W/m2 OVC
10:29 50.4 °F 45.1 °F 29.82 in WSW 17.3 mph 17.3 mph 82% 0.00 in 0.0 W/m2 OVC
10:34 50.3 °F 45.0 °F 29.82 in WNW 12.7 mph 12.7 mph 82% 0.00 in 0.0 W/m2 OVC
10:39 50.3 °F 45.3 °F 29.83 in West 11.5 mph 11.5 mph 83% 0.00 in 0.0 W/m2 OVC
10:44 50.3 °F 45.0 °F 29.83 in NNW 15.0 mph 15.0 mph 82% 0.00 in 0.0 W/m2 OVC
10:49 50.4 °F 45.1 °F 29.83 in NW 15.0 mph 15.0 mph 82% 0.00 in 0.0 W/m2 OVC
10:54 50.6 °F 45.3 °F 29.83 in WNW 16.1 mph 16.1 mph 82% 0.00 in 0.0 W/m2 OVC
10:59 51.0 °F 45.7 °F 29.83 in West 16.1 mph 16.1 mph 82% 0.00 in 0.0 W/m2 OVC
11:04 50.7 °F 45.1 °F 29.83 in WNW 17.3 mph 17.3 mph 81% 0.00 in 0.0 W/m2 OVC
11:09 51.2 °F 45.9 °F 29.84 in West 20.0 mph 20.0 mph 82% 0.00 in 0.0 W/m2 OVC
11:14 51.7 °F 46.1 °F 29.84 in WNW 12.7 mph 12.7 mph 81% 0.00 in 0.0 W/m2 OVC
11:19 51.9 °F 45.6 °F 29.84 in WNW 11.5 mph 11.5 mph 79% 0.00 in 0.0 W/m2 OVC
11:24 51.7 °F 44.7 °F 29.83 in WNW 14.0 mph 27.0 mph 77% 0.00 in 0.0 W/m2 OVC
11:29 51.9 °F 45.3 °F 29.84 in WNW 10.0 mph 20.0 mph 78% 0.00 in 0.0 W/m2 OVC
11:34 52.2 °F 44.2 °F 29.83 in WNW 18.4 mph 18.4 mph 74% 0.00 in 0.0 W/m2 OVC
11:39 52.1 °F 44.4 °F 29.83 in NW 10.0 mph 21.0 mph 75% 0.00 in 0.0 W/m2 OVC
11:44 52.4 °F 44.4 °F 29.84 in WNW 12.0 mph 18.0 mph 74% 0.00 in 0.0 W/m2 OVC
11:49 52.8 °F 45.1 °F 29.83 in WNW 8.0 mph 18.0 mph 75% 0.00 in 0.0 W/m2 OVC
11:54 52.8 °F 44.4 °F 29.84 in WNW 17.0 mph 17.0 mph 73% 0.00 in 0.0 W/m2 OVC
11:59 52.3 °F 44.3 °F 29.83 in WNW 10.0 mph 22.0 mph 74% 0.00 in 0.0 W/m2 OVC
12:05 52.0 °F 44.4 °F 29.83 in WNW 13.0 mph 16.0 mph 75% 0.00 in 0.0 W/m2 OVC
12:09 51.6 °F 44.3 °F 29.83 in WNW 12.0 mph 27.0 mph 76% 0.00 in 0.0 W/m2 OVC
12:14 51.9 °F 45.3 °F 29.84 in WNW 21.0 mph 21.0 mph 78% 0.00 in 0.0 W/m2 OVC
12:19 51.8 °F 44.8 °F 29.84 in WNW 12.0 mph 20.0 mph 77% 0.00 in 0.0 W/m2 OVC
12:24 51.7 °F 44.8 °F 29.84 in WNW 13.0 mph 20.0 mph 77% 0.00 in 0.0 W/m2 OVC
12:29 51.0 °F 43.7 °F 29.84 in West 19.6 mph 19.6 mph 76% 0.00 in 0.0 W/m2 OVC
12:34 50.6 °F 44.0 °F 29.84 in WNW 12.0 mph 18.0 mph 78% 0.00 in 0.0 W/m2 OVC
12:39 50.6 °F 44.9 °F 29.84 in WNW 12.0 mph 17.0 mph 81% 0.00 in 0.0 W/m2 OVC
12:44 51.4 °F 45.1 °F 29.84 in WNW 6.0 mph 16.0 mph 79% 0.00 in 0.0 W/m2 OVC
12:49 52.1 °F 45.1 °F 29.84 in WNW 9.0 mph 17.0 mph 77% 0.00 in 0.0 W/m2 OVC
12:54 52.0 °F 44.6 °F 29.84 in WNW 13.0 mph 23.0 mph 76% 0.00 in 0.0 W/m2 OVC
12:59 52.4 °F 44.7 °F 29.84 in WNW 10.0 mph 18.0 mph 75% 0.00 in 0.0 W/m2 OVC
13:05 52.4 °F 43.3 °F 29.84 in WNW 12.0 mph 20.0 mph 71% 0.00 in 0.0 W/m2 OVC
13:09 52.4 °F 44.0 °F 29.84 in WNW 13.0 mph 33.0 mph 73% 0.00 in 0.0 W/m2 OVC
13:14 52.9 °F 44.5 °F 29.84 in WNW 12.0 mph 20.0 mph 73% 0.00 in 0.0 W/m2 OVC
13:20 52.7 °F 44.6 °F 29.85 in WNW 14.0 mph 23.0 mph 74% 0.00 in 0.0 W/m2 OVC
13:25 52.7 °F 45.3 °F 29.85 in WNW 19.6 mph 19.6 mph 76% 0.00 in 0.0 W/m2 OVC
13:30 52.5 °F 44.8 °F 29.85 in WNW 23.0 mph 23.0 mph 75% 0.00 in 0.0 W/m2 OVC
13:35 52.0 °F 45.7 °F 29.86 in WNW 22.0 mph 22.0 mph 79% 0.00 in 0.0 W/m2 OVC
13:40 51.2 °F 45.2 °F 29.85 in West 25.3 mph 25.3 mph 80% 0.00 in 0.0 W/m2 OVC
13:45 50.7 °F 44.4 °F 29.86 in WNW 25.3 mph 25.3 mph 79% 0.00 in 0.0 W/m2 OVC
13:50 51.0 °F 44.4 °F 29.86 in WNW 23.0 mph 23.0 mph 78% 0.00 in 0.0 W/m2 OVC
13:55 51.4 °F 44.4 °F 29.86 in WNW 20.7 mph 20.7 mph 77% 0.00 in 0.0 W/m2 OVC
14:00 51.3 °F 44.3 °F 29.86 in WNW 24.2 mph 24.2 mph 77% 0.00 in 0.0 W/m2 OVC
14:05 51.6 °F 44.6 °F 29.86 in West 21.9 mph 21.9 mph 77% 0.00 in 0.0 W/m2 OVC
14:10 51.4 °F 44.8 °F 29.86 in WNW 23.0 mph 23.0 mph 78% 0.00 in 0.0 W/m2 OVC
14:16 51.3 °F 43.3 °F 29.86 in WNW 25.3 mph 25.3 mph 74% 0.00 in 0.0 W/m2 OVC
14:21 51.6 °F 42.5 °F 29.85 in West 18.4 mph 18.4 mph 71% 0.00 in 0.0 W/m2 OVC
14:26 52.3 °F 42.0 °F 29.85 in West 15.0 mph 15.0 mph 68% 0.00 in 0.0 W/m2 OVC
14:31 52.6 °F 41.9 °F 29.85 in NW 22.0 mph 22.0 mph 67% 0.00 in 0.0 W/m2 OVC
14:36 52.6 °F 41.9 °F 29.85 in West 19.6 mph 19.6 mph 67% 0.00 in 0.0 W/m2 OVC
14:41 52.1 °F 42.2 °F 29.85 in WNW 24.2 mph 24.2 mph 69% 0.00 in 0.0 W/m2 OVC
14:46 51.9 °F 42.8 °F 29.85 in WNW 20.7 mph 20.7 mph 71% 0.00 in 0.0 W/m2 OVC
14:51 52.2 °F 42.7 °F 29.85 in West 21.9 mph 21.9 mph 70% 0.00 in 0.0 W/m2 OVC
14:56 52.2 °F 42.3 °F 29.85 in NW 25.3 mph 25.3 mph 69% 0.00 in 0.0 W/m2 OVC
15:01 52.4 °F 43.6 °F 29.85 in WNW 23.0 mph 23.0 mph 72% 0.00 in 0.0 W/m2 OVC
15:06 52.7 °F 43.2 °F 29.85 in WNW 19.6 mph 19.6 mph 70% 0.00 in 0.0 W/m2 OVC
15:11 52.7 °F 43.6 °F 29.86 in WNW 18.4 mph 18.4 mph 71% 0.00 in 0.0 W/m2 OVC
15:16 52.6 °F 43.5 °F 29.85 in WNW 19.6 mph 19.6 mph 71% 0.00 in 0.0 W/m2 OVC
15:21 52.6 °F 44.9 °F 29.86 in WNW 16.1 mph 16.1 mph 75% 0.00 in 0.0 W/m2 OVC
15:27 52.3 °F 45.3 °F 29.86 in West 20.0 mph 20.0 mph 77% 0.00 in 0.0 W/m2 OVC
15:32 51.8 °F 44.8 °F 29.86 in WNW 19.6 mph 19.6 mph 77% 0.00 in 0.0 W/m2 OVC
15:37 51.8 °F 45.2 °F 29.86 in NW 19.6 mph 19.6 mph 78% 0.00 in 0.0 W/m2 OVC
15:42 51.8 °F 45.2 °F 29.86 in NW 18.4 mph 18.4 mph 78% 0.00 in 0.0 W/m2 OVC
15:47 51.8 °F 45.2 °F 29.86 in WNW 17.3 mph 17.3 mph 78% 0.00 in 0.0 W/m2 OVC
15:52 52.1 °F 44.8 °F 29.86 in WNW 19.6 mph 19.6 mph 76% 0.00 in 0.0 W/m2 OVC
15:57 52.2 °F 45.2 °F 29.86 in WNW 17.3 mph 17.3 mph 77% 0.00 in 0.0 W/m2 OVC
16:02 52.0 °F 44.3 °F 29.86 in WSW 18.4 mph 18.4 mph 75% 0.00 in 0.0 W/m2 OVC
16:07 51.8 °F 44.5 °F 29.86 in WNW 24.0 mph 24.0 mph 76% 0.00 in 0.0 W/m2 OVC
16:12 51.8 °F 44.8 °F 29.86 in West 12.7 mph 12.7 mph 77% 0.00 in 0.0 W/m2 OVC
16:17 51.6 °F 44.3 °F 29.86 in WNW 19.0 mph 19.0 mph 76% 0.00 in 0.0 W/m2 OVC
16:22 51.6 °F 44.6 °F 29.85 in NW 20.0 mph 20.0 mph 77% 0.00 in 0.0 W/m2 OVC
16:27 51.5 °F 44.5 °F 29.85 in West 18.4 mph 18.4 mph 77% 0.00 in 0.0 W/m2 OVC
16:32 51.9 °F 44.6 °F 29.85 in NW 16.1 mph 16.1 mph 76% 0.00 in 0.0 W/m2 OVC
16:37 52.0 °F 43.6 °F 29.86 in West 19.0 mph 19.0 mph 73% 0.00 in 0.0 W/m2 OVC
16:43 51.6 °F 43.2 °F 29.86 in WNW 20.7 mph 20.7 mph 73% 0.00 in 0.0 W/m2 OVC
16:48 51.4 °F 43.4 °F 29.86 in WNW 15.0 mph 15.0 mph 74% 0.00 in 0.0 W/m2 OVC
16:53 51.5 °F 43.5 °F 29.86 in WNW 22.0 mph 22.0 mph 74% 0.00 in 0.0 W/m2 OVC
16:58 51.4 °F 41.9 °F 29.87 in WNW 24.2 mph 24.2 mph 70% 0.00 in 0.0 W/m2 OVC
17:03 51.5 °F 41.7 °F 29.87 in NNW 24.2 mph 24.2 mph 69% 0.00 in 0.0 W/m2 OVC
17:08 51.4 °F 41.9 °F 29.87 in WNW 29.9 mph 29.9 mph 70% 0.00 in 0.0 W/m2 OVC
17:13 51.5 °F 42.4 °F 29.87 in WNW 19.6 mph 19.6 mph 71% 0.00 in 0.0 W/m2 OVC
17:18 51.7 °F 43.0 °F 29.87 in WNW 24.2 mph 24.2 mph 72% 0.00 in 0.0 W/m2 OVC
17:23 51.6 °F 43.6 °F 29.87 in WSW 16.1 mph 16.1 mph 74% 0.00 in 0.0 W/m2 OVC
17:28 51.3 °F 43.6 °F 29.88 in WNW 25.3 mph 25.3 mph 75% 0.00 in 0.0 W/m2 OVC
17:33 51.3 °F 43.6 °F 29.88 in NW 15.0 mph 15.0 mph 75% 0.00 in 0.0 W/m2 OVC
17:38 51.2 °F 42.5 °F 29.88 in West 20.7 mph 20.7 mph 72% 0.00 in 0.0 W/m2 OVC
17:43 51.1 °F 42.7 °F 29.88 in NW 25.3 mph 25.3 mph 73% 0.00 in 0.0 W/m2 OVC
17:45 51.0 °F 42.6 °F 29.88 in WNW 24.2 mph 24.2 mph 73% 0.00 in 0.0 W/m2 OVC
17:50 50.8 °F 42.8 °F 29.88 in West 26.5 mph 26.5 mph 74% 0.00 in 0.0 W/m2 OVC
17:55 50.8 °F 43.5 °F 29.88 in West 21.9 mph 21.9 mph 76% 0.00 in 0.0 W/m2 OVC
18:00 50.8 °F 42.8 °F 29.88 in West 19.6 mph 19.6 mph 74% 0.00 in 0.0 W/m2 OVC
18:05 50.8 °F 42.8 °F 29.88 in West 19.6 mph 19.6 mph 74% 0.00 in 0.0 W/m2 OVC
18:10 50.9 °F 43.3 °F 29.89 in NW 17.3 mph 17.3 mph 75% 0.00 in 0.0 W/m2 OVC
18:16 50.8 °F 43.5 °F 29.89 in NW 24.2 mph 24.2 mph 76% 0.00 in 0.0 W/m2 OVC
18:21 50.3 °F 43.7 °F 29.89 in WNW 25.3 mph 25.3 mph 78% 0.00 in 0.0 W/m2 OVC
18:26 49.8 °F 43.5 °F 29.89 in WNW 19.6 mph 19.6 mph 79% 0.00 in 0.0 W/m2 OVC
18:31 49.6 °F 43.7 °F 29.89 in West 22.0 mph 22.0 mph 80% 0.00 in 0.0 W/m2 OVC
18:36 49.5 °F 43.6 °F 29.90 in West 18.4 mph 18.4 mph 80% 0.00 in 0.0 W/m2 OVC
18:41 49.5 °F 43.6 °F 29.89 in WNW 16.1 mph 16.1 mph 80% 0.00 in 0.0 W/m2 OVC
18:46 49.5 °F 43.6 °F 29.90 in NW 19.0 mph 19.0 mph 80% 0.00 in 0.0 W/m2 OVC
18:51 49.6 °F 43.4 °F 29.90 in NW 15.0 mph 15.0 mph 79% 0.00 in 0.0 W/m2 OVC
18:56 49.5 °F 43.3 °F 29.90 in WNW 19.6 mph 19.6 mph 79% 0.00 in 0.0 W/m2 OVC
19:01 49.3 °F 42.7 °F 29.90 in WNW 26.5 mph 26.5 mph 78% 0.00 in 0.0 W/m2 CLR
19:06 49.1 °F 42.9 °F 29.90 in WNW 26.5 mph 26.5 mph 79% 0.00 in 0.0 W/m2 CLR
19:11 48.9 °F 42.7 °F 29.90 in WNW 23.0 mph 23.0 mph 79% 0.00 in 0.0 W/m2 CLR
19:16 48.7 °F 42.1 °F 29.90 in WNW 17.3 mph 17.3 mph 78% 0.00 in 0.0 W/m2 CLR
19:21 48.7 °F 41.8 °F 29.90 in WNW 18.0 mph 18.0 mph 77% 0.00 in 0.0 W/m2 CLR
19:26 48.8 °F 41.2 °F 29.91 in West 18.4 mph 18.4 mph 75% 0.00 in 0.0 W/m2 CLR
19:32 48.9 °F 41.7 °F 29.91 in WNW 14.0 mph 14.0 mph 76% 0.00 in 0.0 W/m2 CLR
19:37 48.8 °F 41.6 °F 29.92 in WNW 19.6 mph 19.6 mph 76% 0.00 in 0.0 W/m2 CLR
19:42 48.8 °F 41.9 °F 29.92 in NNW 12.0 mph 12.0 mph 77% 0.00 in 0.0 W/m2 CLR
19:47 48.6 °F 42.0 °F 29.92 in West 15.0 mph 15.0 mph 78% 0.00 in 0.0 W/m2 CLR
19:52 48.6 °F 42.4 °F 29.92 in WNW 11.5 mph 11.5 mph 79% 0.00 in 0.0 W/m2 CLR
19:57 48.6 °F 42.0 °F 29.92 in WNW 15.0 mph 15.0 mph 78% 0.00 in 0.0 W/m2 CLR
20:02 48.7 °F 41.1 °F 29.92 in NW 17.3 mph 17.3 mph 75% 0.00 in 0.0 W/m2 CLR
20:07 48.8 °F 40.2 °F 29.91 in WSW 23.0 mph 23.0 mph 72% 0.00 in 0.0 W/m2 CLR
20:12 48.7 °F 39.7 °F 29.92 in WNW 15.0 mph 15.0 mph 71% 0.00 in 0.0 W/m2 CLR
20:17 48.6 °F 40.0 °F 29.92 in WNW 18.0 mph 18.0 mph 72% 0.00 in 0.0 W/m2 CLR
20:22 48.5 °F 40.2 °F 29.92 in WNW 14.0 mph 14.0 mph 73% 0.00 in 0.0 W/m2 CLR
20:27 48.5 °F 40.2 °F 29.92 in NW 16.1 mph 16.1 mph 73% 0.00 in 0.0 W/m2 CLR
20:32 48.4 °F 39.8 °F 29.92 in West 13.8 mph 13.8 mph 72% 0.00 in 0.0 W/m2 CLR
20:37 48.5 °F 39.9 °F 29.93 in West 17.0 mph 17.0 mph 72% 0.00 in 0.0 W/m2 CLR
20:42 48.5 °F 39.5 °F 29.93 in West 16.1 mph 16.1 mph 71% 0.00 in 0.0 W/m2 CLR
20:44 48.5 °F 39.5 °F 29.93 in West 17.3 mph 17.3 mph 71% 0.00 in 0.0 W/m2 CLR
20:49 48.5 °F 39.5 °F 29.93 in West 15.0 mph 15.0 mph 71% 0.00 in 0.0 W/m2 CLR
20:54 48.5 °F 39.2 °F 29.94 in West 16.1 mph 16.1 mph 70% 0.00 in 0.0 W/m2 CLR
20:59 48.5 °F 38.4 °F 29.94 in West 15.0 mph 15.0 mph 68% 0.00 in 0.0 W/m2 CLR
21:04 48.3 °F 38.2 °F 29.95 in NW 11.5 mph 11.5 mph 68% 0.00 in 0.0 W/m2 CLR
21:09 48.2 °F 38.5 °F 29.95 in WNW 9.2 mph 9.2 mph 69% 0.00 in 0.0 W/m2 CLR
21:14 48.0 °F 38.7 °F 29.95 in West 15.0 mph 15.0 mph 70% 0.00 in 0.0 W/m2 CLR
21:19 48.0 °F 38.7 °F 29.95 in West 12.7 mph 12.7 mph 70% 0.00 in 0.0 W/m2 CLR
21:24 47.9 °F 38.2 °F 29.95 in West 15.0 mph 15.0 mph 69% 0.00 in 0.0 W/m2 CLR
21:29 47.9 °F 37.9 °F 29.95 in WNW 7.0 mph 20.0 mph 68% 0.00 in 0.0 W/m2 CLR
21:35 47.8 °F 37.7 °F 29.95 in WNW 7.0 mph 12.0 mph 68% 0.00 in 0.0 W/m2 CLR
21:39 47.9 °F 37.8 °F 29.96 in WNW 9.0 mph 16.0 mph 68% 0.00 in 0.0 W/m2 CLR
21:44 48.0 °F 37.6 °F 29.96 in WNW 6.0 mph 14.0 mph 67% 0.00 in 0.0 W/m2 CLR
21:49 48.0 °F 37.6 °F 29.96 in West 9.0 mph 16.0 mph 67% 0.00 in 0.0 W/m2 CLR
21:54 48.0 °F 37.2 °F 29.96 in West 9.0 mph 14.0 mph 66% 0.00 in 0.0 W/m2 CLR
21:59 48.1 °F 37.3 °F 29.96 in West 7.0 mph 13.0 mph 66% 0.00 in 0.0 W/m2 CLR
22:05 48.1 °F 37.7 °F 29.96 in WNW 7.0 mph 17.0 mph 67% 0.00 in 0.0 W/m2 CLR
22:09 48.0 °F 37.9 °F 29.97 in WNW 6.0 mph 14.0 mph 68% 0.00 in 0.0 W/m2 CLR
22:14 47.8 °F 38.1 °F 29.97 in West 7.0 mph 13.0 mph 69% 0.00 in 0.0 W/m2 CLR
22:19 47.7 °F 38.0 °F 29.97 in WNW 6.0 mph 12.0 mph 69% 0.00 in 0.0 W/m2 CLR
22:24 47.7 °F 37.7 °F 29.97 in WNW 6.0 mph 14.0 mph 68% 0.00 in 0.0 W/m2 CLR
22:29 47.6 °F 37.9 °F 29.97 in WNW 2.0 mph 12.0 mph 69% 0.00 in 0.0 W/m2 CLR
22:35 47.5 °F 37.5 °F 29.97 in WNW 8.0 mph 13.0 mph 68% 0.00 in 0.0 W/m2 CLR
22:39 47.5 °F 37.1 °F 29.97 in WNW 7.0 mph 10.0 mph 67% 0.00 in 0.0 W/m2 CLR
22:45 47.5 °F 36.7 °F 29.97 in WNW 6.0 mph 12.0 mph 66% 0.00 in 0.0 W/m2 CLR
22:49 47.5 °F 36.7 °F 29.97 in West 9.0 mph 13.0 mph 66% 0.00 in 0.0 W/m2 CLR
22:54 47.5 °F 36.7 °F 29.98 in West 8.0 mph 15.0 mph 66% 0.00 in 0.0 W/m2 CLR
22:59 47.4 °F 37.0 °F 29.98 in West 12.7 mph 12.7 mph 67% 0.00 in 0.0 W/m2 CLR
23:04 47.2 °F 36.8 °F 29.98 in West 6.0 mph 13.0 mph 67% 0.00 in 0.0 W/m2 CLR
23:09 47.2 °F 37.2 °F 29.98 in WNW 6.0 mph 12.0 mph 68% 0.00 in 0.0 W/m2 CLR
23:14 47.2 °F 37.2 °F 29.98 in WNW 6.0 mph 13.0 mph 68% 0.00 in 0.0 W/m2 CLR
23:19 47.2 °F 37.5 °F 29.98 in WNW 7.0 mph 12.0 mph 69% 0.00 in 0.0 W/m2 CLR
23:24 47.2 °F 37.6 °F 29.98 in West 8.0 mph 13.0 mph 69% 0.00 in 0.0 W/m2 CLR
23:29 47.3 °F 38.0 °F 29.98 in WNW 6.0 mph 14.0 mph 70% 0.00 in 0.0 W/m2 CLR
23:35 47.2 °F 38.3 °F 29.98 in West 12.7 mph 12.7 mph 71% 0.00 in 0.0 W/m2 CLR
23:40 47.1 °F 38.5 °F 29.98 in WNW 6.9 mph 6.9 mph 72% 0.00 in 0.0 W/m2 CLR
23:45 47.0 °F 38.4 °F 29.98 in West 10.0 mph 10.0 mph 72% 0.00 in 0.0 W/m2 CLR
23:50 47.0 °F 38.8 °F 29.99 in West 10.4 mph 10.4 mph 73% 0.00 in 0.0 W/m2 CLR
23:55 47.0 °F 38.8 °F 29.99 in West 10.4 mph 10.4 mph 73% 0.00 in 0.0 W/m2 CLR
Donkey Whisperer Farm
Compliments of Weather Underground - 3 mb